createdAt,value
2019-04-30T00:01:30.899Z,100.00
2019-04-30T00:04:08.401Z,100.00
2019-04-30T00:06:39.671Z,100.00
2019-04-30T00:09:15.124Z,100.00
2019-04-30T00:11:46.178Z,100.00
2019-04-30T00:14:17.139Z,100.00
2019-04-30T00:16:48.183Z,100.00
2019-04-30T00:19:19.928Z,100.00
2019-04-30T00:21:56.923Z,100.00
2019-04-30T00:24:25.847Z,100.00
2019-04-30T00:33:27.501Z,100.00
2019-04-30T00:36:05.874Z,100.00
2019-04-30T00:38:37.911Z,100.00
2019-04-30T00:41:11.266Z,100.00
2019-04-30T00:43:48.032Z,100.00
2019-04-30T00:46:17.423Z,100.00
2019-04-30T00:48:47.461Z,100.00
2019-04-30T00:51:21.359Z,100.00
2019-04-30T00:53:52.524Z,100.00
2019-04-30T00:56:28.107Z,100.00
2019-04-30T00:58:57.747Z,100.00
2019-04-30T01:02:00.484Z,100.00
2019-04-30T01:04:36.969Z,100.00
2019-04-30T01:07:10.025Z,100.00
2019-04-30T01:09:46.477Z,100.00
2019-04-30T01:12:17.399Z,100.00
2019-04-30T01:14:46.836Z,100.00
2019-04-30T01:17:18.897Z,100.00
2019-04-30T01:19:51.114Z,100.00
2019-04-30T01:22:28.164Z,100.00
2019-04-30T01:24:55.010Z,100.00
2019-04-30T01:27:28.329Z,100.00
2019-04-30T01:29:58.994Z,100.00
2019-04-30T01:32:30.309Z,100.00
2019-04-30T01:35:01.293Z,100.00
2019-04-30T01:37:32.850Z,100.00
2019-04-30T01:40:10.599Z,100.00
2019-04-30T01:42:36.596Z,100.00
2019-04-30T01:45:09.459Z,100.00
2019-04-30T01:47:40.455Z,100.00
2019-04-30T01:50:11.378Z,100.00
2019-04-30T01:52:54.051Z,100.00
2019-04-30T01:55:44.569Z,100.00
2019-04-30T01:58:21.577Z,100.00
2019-04-30T02:00:56.100Z,100.00
2019-04-30T02:03:29.115Z,100.00
2019-04-30T02:06:00.711Z,100.00
2019-04-30T02:08:31.957Z,100.00
2019-04-30T02:11:02.719Z,100.00
2019-04-30T02:13:34.527Z,100.00
2019-04-30T02:16:05.990Z,100.00
2019-04-30T02:18:36.748Z,100.00
2019-04-30T02:21:08.957Z,100.00
2019-04-30T02:23:40.049Z,100.00
2019-04-30T02:26:11.061Z,100.00
2019-04-30T02:28:41.866Z,100.00
2019-04-30T02:31:13.406Z,100.00
2019-04-30T02:33:47.075Z,100.00
2019-04-30T02:36:40.322Z,100.00
2019-04-30T02:39:12.311Z,100.00
2019-04-30T02:41:44.005Z,100.00
2019-04-30T02:44:15.222Z,100.00
2019-04-30T02:46:50.317Z,100.00
2019-04-30T02:49:20.673Z,100.00
2019-04-30T02:51:51.854Z,100.00
2019-04-30T02:54:30.640Z,100.00
2019-04-30T02:57:14.050Z,100.00
2019-04-30T03:00:09.697Z,100.00
2019-04-30T03:02:39.646Z,100.00
2019-04-30T03:05:13.503Z,100.00
2019-04-30T03:07:56.284Z,100.00
2019-04-30T03:10:27.154Z,100.00
2019-04-30T03:13:00.007Z,100.00
2019-04-30T03:22:30.117Z,100.00
2019-04-30T03:25:40.572Z,100.00
2019-04-30T03:28:39.699Z,100.00
2019-04-30T03:31:12.635Z,100.00
2019-04-30T03:33:43.795Z,100.00
2019-04-30T03:36:14.545Z,100.00
2019-04-30T03:38:45.852Z,100.00
2019-04-30T03:41:19.915Z,100.00
2019-04-30T03:43:50.540Z,100.00
2019-04-30T03:46:21.938Z,100.00
2019-04-30T03:49:13.372Z,100.00
2019-04-30T03:51:53.849Z,100.00
2019-04-30T03:54:24.849Z,100.00
2019-04-30T03:57:00.398Z,100.00
2019-04-30T03:59:30.573Z,100.00
2019-04-30T04:02:30.036Z,100.00
2019-04-30T04:05:06.952Z,100.00
2019-04-30T04:07:43.502Z,100.00
2019-04-30T04:10:52.938Z,100.00
2019-04-30T04:13:24.235Z,100.00
2019-04-30T04:15:55.466Z,100.00
2019-04-30T04:18:26.735Z,100.00
2019-04-30T04:21:11.133Z,100.00
2019-04-30T04:23:32.886Z,100.00
2019-04-30T04:26:02.629Z,100.00
2019-04-30T04:28:54.378Z,100.00
2019-04-30T04:31:25.222Z,100.00
2019-04-30T04:33:59.793Z,100.00
2019-04-30T04:36:30.234Z,100.00
2019-04-30T04:39:01.452Z,100.00
2019-04-30T04:41:33.965Z,100.00
2019-04-30T04:44:05.217Z,100.00
2019-04-30T04:46:35.958Z,100.00
2019-04-30T04:49:09.029Z,100.00
2019-04-30T04:51:42.279Z,100.00
2019-04-30T04:54:12.296Z,100.00
2019-04-30T04:56:43.767Z,100.00
2019-04-30T04:59:14.788Z,100.00
2019-04-30T05:01:45.787Z,100.00
2019-04-30T05:04:16.815Z,100.00
2019-04-30T05:06:49.770Z,100.00
2019-04-30T05:09:20.625Z,100.00
2019-04-30T05:11:51.689Z,100.00
2019-04-30T05:14:22.945Z,100.00
2019-04-30T05:16:53.913Z,100.00
2019-04-30T05:19:24.800Z,100.00
2019-04-30T05:21:55.782Z,100.00
2019-04-30T05:24:28.606Z,100.00
2019-04-30T05:26:59.931Z,100.00
2019-04-30T05:29:31.958Z,100.00
2019-04-30T05:32:02.877Z,100.00
2019-04-30T05:34:33.645Z,100.00
2019-04-30T05:37:04.461Z,100.00
2019-04-30T05:39:35.465Z,100.00
2019-04-30T05:42:06.296Z,100.00
2019-04-30T05:44:39.487Z,100.00
2019-04-30T05:47:10.433Z,100.00
2019-04-30T05:49:41.558Z,100.00
2019-04-30T05:52:12.555Z,100.00
2019-04-30T05:54:43.366Z,100.00
2019-04-30T05:57:14.330Z,100.00
2019-04-30T05:59:51.388Z,100.00
2019-04-30T06:02:30.750Z,100.00
2019-04-30T06:05:02.653Z,100.00
2019-04-30T06:07:34.991Z,100.00
2019-04-30T06:10:16.346Z,100.00
2019-04-30T06:13:02.426Z,100.00
2019-04-30T06:15:45.357Z,100.00
2019-04-30T06:18:43.256Z,100.00
2019-04-30T06:21:27.027Z,100.00
2019-04-30T06:24:05.952Z,100.00
2019-04-30T06:26:45.438Z,100.00
2019-04-30T06:29:39.048Z,100.00
2019-04-30T06:32:34.750Z,100.00
2019-04-30T06:35:05.703Z,100.00
2019-04-30T06:37:39.103Z,100.00
2019-04-30T06:40:11.762Z,100.00
2019-04-30T06:42:42.770Z,100.00
2019-04-30T06:45:13.770Z,100.00
2019-04-30T06:47:44.911Z,100.00
2019-04-30T06:50:16.842Z,100.00
2019-04-30T06:52:56.641Z,100.00
2019-04-30T06:55:20.051Z,100.00
2019-04-30T06:57:51.150Z,100.00
2019-04-30T07:00:32.806Z,100.00
2019-04-30T07:02:59.102Z,100.00
2019-04-30T07:05:29.927Z,100.00
2019-04-30T07:08:19.018Z,100.00
2019-04-30T07:11:11.220Z,100.00
2019-04-30T07:13:44.846Z,100.00
2019-04-30T07:16:15.602Z,100.00
2019-04-30T07:18:48.774Z,100.00
2019-04-30T07:21:20.057Z,100.00
2019-04-30T07:23:51.889Z,95.04
2019-04-30T07:26:24.616Z,98.33
2019-04-30T07:28:55.855Z,99.39
2019-04-30T07:31:29.365Z,99.77
2019-04-30T07:33:59.936Z,97.67
2019-04-30T07:36:45.914Z,96.64
2019-04-30T07:39:05.918Z,96.08
2019-04-30T07:41:36.662Z,87.52
2019-04-30T07:44:10.777Z,89.87
2019-04-30T07:46:45.150Z,92.79
2019-04-30T07:49:12.827Z,89.56
2019-04-30T07:51:44.565Z,88.70
2019-04-30T07:54:15.665Z,82.23
2019-04-30T07:56:46.415Z,82.23
2019-04-30T07:59:19.944Z,85.17
2019-04-30T08:02:06.661Z,87.12
2019-04-30T08:04:40.869Z,93.83
2019-04-30T08:07:11.585Z,93.82
2019-04-30T08:09:42.812Z,88.46
2019-04-30T08:12:21.592Z,84.57
2019-04-30T08:14:49.432Z,82.77
2019-04-30T08:17:19.483Z,81.38
2019-04-30T08:19:50.312Z,81.85
2019-04-30T08:22:21.285Z,79.45
2019-04-30T08:24:52.307Z,84.06
2019-04-30T08:27:23.620Z,88.46
2019-04-30T08:29:54.394Z,86.85
2019-04-30T08:32:25.386Z,81.26
2019-04-30T08:34:56.158Z,83.33
2019-04-30T08:37:28.710Z,79.49
2019-04-30T08:40:03.397Z,80.45
2019-04-30T08:42:34.268Z,75.88
2019-04-30T08:45:06.169Z,70.99
2019-04-30T08:47:39.304Z,69.45
2019-04-30T08:50:10.437Z,73.05
2019-04-30T08:52:41.391Z,71.47
2019-04-30T08:55:16.784Z,78.54
2019-04-30T08:57:45.443Z,78.95
2019-04-30T09:00:16.874Z,74.03
2019-04-30T09:02:49.184Z,72.09
2019-04-30T09:05:30.635Z,64.76
2019-04-30T09:08:01.803Z,64.76
2019-04-30T09:10:32.542Z,68.41
2019-04-30T09:13:03.637Z,69.06
2019-04-30T09:15:35.598Z,72.10
2019-04-30T09:18:10.235Z,73.13
2019-04-30T09:20:39.309Z,69.98
2019-04-30T09:23:43.972Z,69.98
2019-04-30T09:26:29.154Z,65.43
2019-04-30T09:32:55.883Z,66.73
2019-04-30T09:35:46.117Z,59.49
2019-04-30T09:38:29.319Z,63.10
2019-04-30T09:41:12.874Z,63.10
2019-04-30T09:43:43.874Z,62.68
2019-04-30T09:46:22.026Z,64.59
2019-04-30T09:48:47.160Z,61.73
2019-04-30T09:51:20.686Z,60.67
2019-04-30T09:53:58.820Z,65.12
2019-04-30T09:56:23.817Z,62.20
2019-04-30T09:58:54.615Z,62.42
2019-04-30T10:01:25.444Z,62.14
2019-04-30T10:03:56.530Z,59.04
2019-04-30T10:06:39.054Z,60.77
2019-04-30T10:09:00.078Z,53.14
2019-04-30T10:11:41.999Z,55.89
2019-04-30T10:14:13.165Z,52.10
2019-04-30T10:17:03.546Z,53.05
2019-04-30T10:19:34.654Z,51.95
2019-04-30T10:22:31.110Z,53.47
2019-04-30T10:25:03.626Z,51.94
2019-04-30T10:28:14.477Z,56.07
2019-04-30T10:31:24.208Z,53.20
2019-04-30T10:33:58.532Z,48.08
2019-04-30T10:36:54.043Z,52.23
2019-04-30T10:39:50.720Z,55.91
2019-04-30T10:42:21.790Z,49.21
2019-04-30T10:44:52.606Z,52.33
2019-04-30T10:47:23.901Z,48.95
2019-04-30T10:49:54.894Z,49.05
2019-04-30T10:52:25.963Z,49.15
2019-04-30T10:54:57.034Z,52.03
2019-04-30T10:57:28.508Z,49.53
2019-04-30T10:59:59.260Z,46.68
2019-04-30T11:02:31.184Z,46.75
2019-04-30T11:05:02.056Z,45.55
2019-04-30T11:07:32.884Z,49.86
2019-04-30T11:10:03.946Z,48.37
2019-04-30T11:12:35.599Z,47.61
2019-04-30T11:15:07.565Z,44.90
2019-04-30T11:17:39.643Z,41.05
2019-04-30T11:20:10.805Z,40.77
2019-04-30T11:22:42.336Z,42.79
2019-04-30T11:25:13.485Z,42.92
2019-04-30T11:27:44.955Z,47.10
2019-04-30T11:30:21.346Z,42.67
2019-04-30T11:32:49.052Z,39.68
2019-04-30T11:35:20.757Z,39.68
2019-04-30T11:37:51.721Z,44.40
2019-04-30T11:40:33.914Z,43.51
2019-04-30T11:43:02.491Z,39.07
2019-04-30T11:46:12.025Z,42.95
2019-04-30T11:48:42.848Z,39.80
2019-04-30T11:51:14.774Z,38.73
2019-04-30T11:53:46.139Z,40.92
2019-04-30T11:56:16.951Z,41.84
2019-04-30T11:58:48.915Z,37.03
2019-04-30T12:01:22.003Z,39.42
2019-04-30T12:03:53.284Z,40.41
2019-04-30T12:06:24.084Z,40.37
2019-04-30T12:09:12.595Z,40.62
2019-04-30T12:11:43.845Z,38.65
2019-04-30T12:14:14.657Z,43.38
2019-04-30T12:16:45.709Z,40.65
2019-04-30T12:19:18.906Z,36.26
2019-04-30T12:21:49.736Z,40.77
2019-04-30T12:24:20.716Z,39.10
2019-04-30T12:26:51.774Z,35.61
2019-04-30T12:29:22.878Z,38.51
2019-04-30T12:35:44.814Z,34.62
2019-04-30T12:38:19.074Z,36.33
2019-04-30T12:40:49.709Z,37.83
2019-04-30T12:43:20.711Z,39.02
2019-04-30T12:46:02.246Z,38.41
2019-04-30T12:48:42.951Z,34.24
2019-04-30T12:51:31.213Z,35.20
2019-04-30T12:54:06.990Z,34.07
2019-04-30T12:57:03.904Z,36.87
2019-04-30T12:59:34.747Z,36.21
2019-04-30T13:02:05.712Z,37.02
2019-04-30T13:04:36.458Z,36.45
2019-04-30T13:07:09.857Z,36.25
2019-04-30T13:09:41.308Z,37.22
2019-04-30T13:12:14.378Z,34.08
2019-04-30T13:14:53.907Z,34.10
2019-04-30T13:17:19.935Z,33.42
2019-04-30T13:19:50.917Z,33.10
2019-04-30T13:22:21.643Z,35.58
2019-04-30T13:24:52.486Z,34.45
2019-04-30T13:27:23.499Z,34.29
2019-04-30T13:30:13.972Z,32.37
2019-04-30T13:32:51.413Z,30.82
2019-04-30T13:35:22.224Z,33.99
2019-04-30T13:37:57.636Z,32.99
2019-04-30T13:40:48.963Z,33.27
2019-04-30T13:43:26.934Z,35.89
2019-04-30T13:45:58.596Z,33.63
2019-04-30T13:48:29.514Z,32.63
2019-04-30T13:51:00.556Z,32.39
2019-04-30T13:53:31.291Z,33.15
2019-04-30T13:56:02.013Z,31.72
2019-04-30T13:58:33.206Z,32.89
2019-04-30T14:01:04.338Z,35.45
2019-04-30T14:03:40.736Z,34.59
2019-04-30T14:06:13.214Z,31.35
2019-04-30T14:08:48.812Z,33.75
2019-04-30T14:11:20.040Z,32.58
2019-04-30T14:13:50.870Z,32.00
2019-04-30T14:16:22.202Z,34.57
2019-04-30T14:18:52.923Z,32.82
2019-04-30T14:21:33.174Z,32.24
2019-04-30T14:23:56.551Z,34.12
2019-04-30T14:26:29.111Z,33.06
2019-04-30T14:29:00.932Z,32.28
2019-04-30T14:31:32.010Z,30.83
2019-04-30T14:34:02.953Z,32.13
2019-04-30T14:36:33.690Z,33.27
2019-04-30T14:39:14.676Z,32.39
2019-04-30T14:41:40.730Z,32.45
2019-04-30T14:44:17.569Z,31.41
2019-04-30T14:47:12.473Z,30.72
2019-04-30T14:50:18.624Z,30.71
2019-04-30T14:53:04.059Z,32.32
2019-04-30T14:56:08.801Z,32.65
2019-04-30T14:58:55.953Z,31.61
2019-04-30T15:01:36.107Z,31.83
2019-04-30T15:04:06.906Z,32.75
2019-04-30T15:06:37.717Z,32.81
2019-04-30T15:09:08.578Z,31.74
2019-04-30T15:11:39.612Z,30.64
2019-04-30T15:14:10.817Z,32.95
2019-04-30T15:16:42.043Z,31.92
2019-04-30T15:19:12.999Z,32.28
2019-04-30T15:21:43.961Z,32.27
2019-04-30T15:24:29.296Z,32.48
2019-04-30T15:27:00.517Z,29.86
2019-04-30T15:29:31.487Z,30.79
2019-04-30T15:32:02.518Z,30.54
2019-04-30T15:34:33.240Z,30.52
2019-04-30T15:37:04.316Z,31.05
2019-04-30T15:39:43.384Z,31.55
2019-04-30T15:48:06.371Z,34.54
2019-04-30T15:50:39.167Z,32.90
2019-04-30T15:53:34.407Z,31.83
2019-04-30T15:56:34.355Z,31.08
2019-04-30T15:59:39.521Z,32.10
2019-04-30T16:02:29.546Z,34.33
2019-04-30T16:05:18.559Z,34.67
2019-04-30T16:07:59.627Z,35.38
2019-04-30T16:10:53.082Z,34.99
2019-04-30T16:14:02.369Z,35.36
2019-04-30T16:17:11.497Z,35.28
2019-04-30T16:20:01.637Z,33.88
2019-04-30T16:22:53.588Z,34.90
2019-04-30T16:25:24.307Z,35.52
2019-04-30T16:27:55.230Z,34.97
2019-04-30T16:30:26.023Z,36.22
2019-04-30T16:32:56.981Z,36.74
2019-04-30T16:35:29.559Z,33.81
2019-04-30T16:38:01.876Z,37.26
2019-04-30T16:40:32.677Z,36.76
2019-04-30T16:43:03.482Z,35.92
2019-04-30T16:45:34.435Z,37.81
2019-04-30T16:48:06.546Z,35.68
2019-04-30T16:50:37.599Z,38.61
2019-04-30T16:53:08.457Z,35.06
2019-04-30T16:55:39.498Z,36.64
2019-04-30T16:58:10.367Z,35.51
2019-04-30T17:00:41.393Z,34.83
2019-04-30T17:03:20.627Z,35.51
2019-04-30T17:05:56.691Z,38.60
2019-04-30T17:08:46.706Z,40.30
2019-04-30T17:12:15.407Z,43.57
2019-04-30T17:14:49.204Z,45.05
2019-04-30T17:17:19.979Z,45.57
2019-04-30T17:19:50.710Z,47.66
2019-04-30T17:22:21.927Z,47.77
2019-04-30T17:24:52.879Z,50.90
2019-04-30T17:27:23.943Z,49.39
2019-04-30T17:29:54.784Z,51.79
2019-04-30T17:32:25.806Z,47.84
2019-04-30T17:34:58.770Z,54.79
2019-04-30T17:37:31.534Z,52.83
2019-04-30T17:40:01.935Z,55.86
2019-04-30T17:42:33.848Z,56.01
2019-04-30T17:45:05.160Z,54.39
2019-04-30T17:47:36.037Z,59.41
2019-04-30T17:50:08.979Z,59.60
2019-04-30T17:52:40.099Z,58.84
2019-04-30T17:55:10.907Z,60.69
2019-04-30T17:57:42.044Z,60.77
2019-04-30T18:00:18.713Z,61.33
2019-04-30T18:02:47.007Z,61.60
2019-04-30T18:05:19.482Z,62.16
2019-04-30T18:07:50.628Z,64.94
2019-04-30T18:10:21.716Z,65.37
2019-04-30T18:12:53.034Z,66.77
2019-04-30T18:15:25.619Z,66.41
2019-04-30T18:18:16.029Z,67.83
2019-04-30T18:20:56.956Z,68.66
2019-04-30T18:23:48.598Z,69.48
2019-04-30T18:26:20.521Z,71.01
2019-04-30T18:28:51.610Z,71.54
2019-04-30T18:31:23.230Z,72.08
2019-04-30T18:33:54.212Z,73.04
2019-04-30T18:36:25.569Z,74.22
2019-04-30T18:38:56.555Z,75.66
2019-04-30T18:41:27.617Z,76.85
2019-04-30T18:43:59.715Z,76.74
2019-04-30T18:46:30.865Z,78.01
2019-04-30T18:49:01.886Z,78.04
2019-04-30T18:51:39.044Z,78.32
2019-04-30T18:54:05.601Z,79.22
2019-04-30T18:56:36.582Z,80.02
2019-04-30T18:59:08.791Z,80.48
2019-04-30T19:01:40.327Z,80.98
2019-04-30T19:04:11.569Z,81.23
2019-04-30T19:06:42.627Z,81.99
2019-04-30T19:09:35.288Z,82.52
2019-04-30T19:12:23.868Z,82.78
2019-04-30T19:15:13.833Z,83.07
2019-04-30T19:18:03.228Z,84.37
2019-04-30T19:20:39.671Z,84.67
2019-04-30T19:23:10.766Z,85.42
2019-04-30T19:25:41.571Z,85.78
2019-04-30T19:28:14.590Z,85.96
2019-04-30T19:30:54.963Z,86.18
2019-04-30T19:33:18.078Z,85.97
2019-04-30T19:35:50.626Z,86.33
2019-04-30T19:38:21.658Z,86.83
2019-04-30T19:40:52.479Z,87.09
2019-04-30T19:43:23.211Z,87.39
2019-04-30T19:45:54.478Z,87.59
2019-04-30T19:48:25.922Z,87.87
2019-04-30T19:50:58.590Z,88.31
2019-04-30T19:53:30.401Z,89.05
2019-04-30T19:56:01.276Z,89.03
2019-04-30T19:58:46.730Z,89.19
2019-04-30T20:01:04.704Z,89.04
2019-04-30T20:03:36.390Z,89.53
2019-04-30T20:06:09.007Z,89.43
2019-04-30T20:08:40.952Z,89.68
2019-04-30T20:11:11.987Z,90.46
2019-04-30T20:13:42.725Z,90.23
2019-04-30T20:16:13.631Z,90.59
2019-04-30T20:18:44.342Z,90.58
2019-04-30T20:21:26.300Z,90.72
2019-04-30T20:23:51.431Z,90.78
2019-04-30T20:26:22.243Z,91.40
2019-04-30T20:28:52.974Z,91.07
2019-04-30T20:31:23.700Z,90.68
2019-04-30T20:33:55.391Z,90.49
2019-04-30T20:36:26.346Z,90.70
2019-04-30T20:39:19.194Z,90.87
2019-04-30T20:41:52.243Z,90.95
2019-04-30T20:44:23.051Z,91.00
2019-04-30T20:46:55.079Z,91.05
2019-04-30T20:49:26.761Z,91.71
2019-04-30T20:51:58.968Z,91.87
2019-04-30T20:54:30.021Z,92.23
2019-04-30T20:57:01.007Z,92.62
2019-04-30T20:59:32.114Z,92.67
2019-04-30T21:02:02.848Z,92.60
2019-04-30T21:04:33.915Z,93.11
2019-04-30T21:07:04.720Z,92.76
2019-04-30T21:09:35.699Z,92.51
2019-04-30T21:12:08.865Z,92.85
2019-04-30T21:14:40.608Z,92.98
2019-04-30T21:17:11.433Z,92.76
2019-04-30T21:19:42.151Z,92.23
2019-04-30T21:22:12.966Z,92.31
2019-04-30T21:24:43.687Z,91.30
2019-04-30T21:27:14.500Z,90.81
2019-04-30T21:29:45.481Z,90.64
2019-04-30T21:32:38.802Z,89.99
2019-04-30T21:35:27.297Z,88.33
2019-04-30T21:37:58.998Z,86.38
2019-04-30T21:40:31.136Z,85.49
2019-04-30T21:46:37.654Z,86.32
2019-04-30T21:49:18.149Z,86.60
2019-04-30T21:51:49.434Z,86.77
2019-04-30T21:54:20.435Z,87.33
2019-04-30T21:57:10.382Z,87.13
2019-04-30T21:59:42.755Z,86.84
2019-04-30T22:02:13.573Z,86.96
2019-04-30T22:04:44.834Z,86.38
2019-04-30T22:07:15.750Z,86.36
2019-04-30T22:09:46.477Z,86.65
2019-04-30T22:12:19.026Z,86.41
2019-04-30T22:14:49.815Z,86.40
2019-04-30T22:17:21.127Z,86.21
2019-04-30T22:19:51.853Z,85.84
2019-04-30T22:22:23.816Z,87.06
2019-04-30T22:24:54.543Z,87.41
2019-04-30T22:27:25.286Z,86.79
2019-04-30T22:29:56.246Z,86.81
2019-04-30T22:32:27.001Z,87.36
2019-04-30T22:35:11.739Z,87.08
2019-04-30T22:37:42.718Z,86.65
2019-04-30T22:40:13.605Z,85.83
2019-04-30T22:42:44.354Z,86.63
2019-04-30T22:45:32.914Z,86.68
2019-04-30T22:48:03.663Z,86.33
2019-04-30T22:50:34.722Z,86.74
2019-04-30T22:53:05.694Z,86.66
2019-04-30T22:55:36.419Z,86.65
2019-04-30T22:58:07.488Z,87.30
2019-04-30T23:00:42.109Z,86.41
2019-04-30T23:03:15.603Z,86.48
2019-04-30T23:05:46.695Z,86.32
2019-04-30T23:08:17.507Z,87.03
2019-04-30T23:10:48.675Z,87.95
2019-04-30T23:13:19.644Z,88.36
2019-04-30T23:15:52.715Z,88.81
2019-04-30T23:18:23.875Z,88.67
2019-04-30T23:20:54.605Z,89.25
2019-04-30T23:23:25.368Z,89.21
2019-04-30T23:25:56.095Z,89.32
2019-04-30T23:28:27.084Z,88.73
2019-04-30T23:30:57.810Z,88.24
2019-04-30T23:33:28.561Z,88.46
2019-04-30T23:35:59.537Z,89.19
2019-04-30T23:38:31.576Z,88.64
2019-04-30T23:41:02.371Z,88.74
2019-04-30T23:43:33.119Z,89.50
2019-04-30T23:46:04.220Z,88.41
2019-04-30T23:48:35.212Z,88.81
2019-04-30T23:51:05.940Z,88.23
2019-04-30T23:53:36.960Z,89.04
2019-04-30T23:56:08.009Z,88.43
2019-04-30T23:58:39.016Z,88.87
